map of RJTC home
RJTC - Airport
Location
City:  Tachikawa, Tokyo, Japan
Name:Tachikawa Airfield
ICAO:RJTC

Details
Type:Airport (Aerodrome, Airfield)
Use:Military
Latitude:35°42'39"N (35.710833)
Longitude:139°24'11"E (139.403056)
Elevation:313 ft (95 m)
Variation:7.60°W (WMM2015 magnetic declination)
-0.06° annual change
Runways:1
Longest:2953 × 148 ft (900 × 45 m), paved

Time
Time Zone:UTC+9
Local Time:

Weather
METAR:RJTC 160612Z 03010KT 360V060 9999 FEW030 BKN070 BKN230 09/M09 Q1011 RMK 1CU030 5AC070 6CI230 A2988

Related Locations
Nearby:
Farthest:SNPV: 11768 mi / 18939 km
Mostardas [Solidão], RS, BR

Find:

   beyond  
but within

Other Information
Maps:
NOTAMs:
Links:
Sources:

  
  • flag of Japan
  • flag of Tokyo
  

Sectional Chart

Flight Planning
at skyvector.com

Satellite Image

Google Maps Satellite view

 

Copyright © 2004-2019 Karl L. Swartz. All rights reserved.
The Great Circle Mapper name and logo are trademarks of the Great Circle Mapper.
All other trademarks mentioned herein belong to their respective owners.
Please see credits for attibutions and further copyright information.

  Follow gcmap on Facebook Follow gcmap on Twitter Follow gcmap on Google+ GCmap on LinkedIn

hCard Microformat

Geo Microformat